createdAt,value
2022-10-19T00:00:10.097Z,11.1
2022-10-19T00:03:10.100Z,11.1
2022-10-19T00:06:10.116Z,11.1
2022-10-19T00:09:10.130Z,11.1
2022-10-19T00:12:10.114Z,11.2
2022-10-19T00:15:10.119Z,11.2
2022-10-19T00:18:10.126Z,11.2
2022-10-19T00:21:10.121Z,11.2
2022-10-19T00:24:10.123Z,11.2
2022-10-19T00:27:10.164Z,11.2
2022-10-19T00:30:10.139Z,11.2
2022-10-19T00:33:10.136Z,11.2
2022-10-19T00:36:10.143Z,11.2
2022-10-19T00:39:10.143Z,11.2
2022-10-19T00:42:10.145Z,11.3
2022-10-19T00:45:10.174Z,11.3
2022-10-19T00:48:10.159Z,11.3
2022-10-19T00:51:10.157Z,11.3
2022-10-19T00:54:10.166Z,11.3
2022-10-19T00:57:10.161Z,11.3
2022-10-19T01:00:10.167Z,11.3
2022-10-19T01:03:10.208Z,11.3
2022-10-19T01:06:10.171Z,11.3
2022-10-19T01:09:10.176Z,11.2
2022-10-19T01:12:10.185Z,11.3
2022-10-19T01:15:10.183Z,11.2
2022-10-19T01:18:10.189Z,11.2
2022-10-19T01:21:10.219Z,11.2
2022-10-19T01:24:10.196Z,11.2
2022-10-19T01:27:10.199Z,11.1
2022-10-19T01:30:10.195Z,11.1
2022-10-19T01:33:10.206Z,11.1
2022-10-19T01:36:10.203Z,11.1
2022-10-19T01:39:10.232Z,11.1
2022-10-19T01:42:10.203Z,11
2022-10-19T01:45:10.206Z,11
2022-10-19T01:48:10.207Z,11
2022-10-19T01:51:10.207Z,11
2022-10-19T01:54:10.211Z,11
2022-10-19T01:57:10.234Z,11
2022-10-19T02:00:10.212Z,11
2022-10-19T02:03:10.214Z,11
2022-10-19T02:06:10.224Z,11
2022-10-19T02:09:10.223Z,11
2022-10-19T02:12:10.235Z,11.1
2022-10-19T02:15:10.263Z,11.1
2022-10-19T02:18:10.245Z,11
2022-10-19T02:21:10.254Z,11
2022-10-19T02:24:10.255Z,11.1
2022-10-19T02:27:10.257Z,11.1
2022-10-19T02:30:10.264Z,11.1
2022-10-19T02:33:10.293Z,11.1
2022-10-19T02:36:10.275Z,11.1
2022-10-19T02:39:10.284Z,11.1
2022-10-19T02:42:10.296Z,11.1
2022-10-19T02:45:10.292Z,11.1
2022-10-19T02:48:10.298Z,11
2022-10-19T02:51:10.325Z,11.1
2022-10-19T02:54:10.309Z,11.1
2022-10-19T02:57:10.315Z,11.1
2022-10-19T03:00:10.319Z,11
2022-10-19T03:03:10.318Z,11
2022-10-19T03:06:10.336Z,11
2022-10-19T03:09:10.357Z,11
2022-10-19T03:12:10.337Z,11
2022-10-19T03:15:10.341Z,11
2022-10-19T03:18:10.345Z,11
2022-10-19T03:21:10.371Z,11
2022-10-19T03:24:10.357Z,11
2022-10-19T03:27:10.390Z,11
2022-10-19T03:30:10.370Z,11
2022-10-19T03:33:10.375Z,10.9
2022-10-19T03:36:10.379Z,10.9
2022-10-19T03:39:10.389Z,10.9
2022-10-19T03:42:10.385Z,10.9
2022-10-19T03:45:10.417Z,10.9
2022-10-19T03:48:10.401Z,10.9
2022-10-19T03:51:10.404Z,10.9
2022-10-19T03:54:10.408Z,10.9
2022-10-19T03:57:10.417Z,10.9
2022-10-19T04:00:10.422Z,10.9
2022-10-19T04:03:10.452Z,10.9
2022-10-19T04:06:10.436Z,10.9
2022-10-19T04:09:10.448Z,10.9
2022-10-19T04:12:10.441Z,10.9
2022-10-19T04:15:10.449Z,10.9
2022-10-19T04:18:10.454Z,10.9
2022-10-19T04:21:10.490Z,10.9
2022-10-19T04:24:10.472Z,10.9
2022-10-19T04:27:10.474Z,10.9
2022-10-19T04:30:10.480Z,10.9
2022-10-19T04:33:10.485Z,10.9
2022-10-19T04:36:10.495Z,10.9
2022-10-19T04:39:10.525Z,10.9
2022-10-19T04:42:10.517Z,10.9
2022-10-19T04:45:10.515Z,10.8
2022-10-19T04:48:10.524Z,10.8
2022-10-19T04:51:10.532Z,10.8
2022-10-19T04:54:10.535Z,10.8
2022-10-19T04:57:10.572Z,10.8
2022-10-19T05:00:10.556Z,10.8
2022-10-19T05:03:10.555Z,10.8
2022-10-19T05:06:10.564Z,10.8
2022-10-19T05:09:10.570Z,10.8
2022-10-19T05:12:10.577Z,10.8
2022-10-19T05:15:10.616Z,10.7
2022-10-19T05:18:10.598Z,10.7
2022-10-19T05:21:10.607Z,10.7
2022-10-19T05:24:10.612Z,10.8
2022-10-19T05:27:10.622Z,10.8
2022-10-19T05:30:10.635Z,10.8
2022-10-19T05:33:10.663Z,10.8
2022-10-19T05:36:10.641Z,10.8
2022-10-19T05:39:10.645Z,10.8
2022-10-19T05:42:10.657Z,10.8
2022-10-19T05:45:10.668Z,10.8
2022-10-19T05:48:10.672Z,10.8
2022-10-19T05:51:10.716Z,10.7
2022-10-19T05:54:10.688Z,10.7
2022-10-19T05:57:10.715Z,10.8
2022-10-19T06:00:10.718Z,10.7
2022-10-19T06:03:10.717Z,10.7
2022-10-19T06:06:10.723Z,10.7
2022-10-19T06:09:10.770Z,10.8
2022-10-19T06:12:10.754Z,10.8
2022-10-19T06:15:10.753Z,10.8
2022-10-19T06:18:10.767Z,10.8
2022-10-19T06:21:10.777Z,10.8
2022-10-19T06:24:10.783Z,10.8
2022-10-19T06:27:10.870Z,10.9
2022-10-19T06:30:10.798Z,10.9
2022-10-19T06:33:10.818Z,10.9
2022-10-19T06:36:10.809Z,10.9
2022-10-19T06:39:10.830Z,11
2022-10-19T06:42:10.830Z,11
2022-10-19T06:45:10.870Z,11
2022-10-19T06:48:10.863Z,11.1
2022-10-19T06:51:10.857Z,11.1
2022-10-19T06:54:10.875Z,11.1
2022-10-19T06:57:10.880Z,11.2
2022-10-19T07:00:10.896Z,11.2
2022-10-19T07:03:10.931Z,11.2
2022-10-19T07:06:10.918Z,11.3
2022-10-19T07:09:10.926Z,11.3
2022-10-19T07:12:10.954Z,11.4
2022-10-19T07:15:10.951Z,11.4
2022-10-19T07:18:10.967Z,11.5
2022-10-19T07:21:11.001Z,11.5
2022-10-19T07:24:10.984Z,11.6
2022-10-19T07:27:11.056Z,11.6
2022-10-19T07:30:11.015Z,11.7
2022-10-19T07:33:11.060Z,11.7
2022-10-19T07:36:11.033Z,11.7
2022-10-19T07:39:11.063Z,11.8
2022-10-19T07:42:11.093Z,11.8
2022-10-19T07:45:11.063Z,11.9
2022-10-19T07:48:11.082Z,11.9
2022-10-19T07:51:11.090Z,12
2022-10-19T07:54:11.104Z,12.1
2022-10-19T07:57:11.138Z,12.2
2022-10-19T08:00:11.130Z,12.2
2022-10-19T08:03:43.534Z,12.2
2022-10-19T08:06:11.153Z,12.3
2022-10-19T08:09:13.374Z,12.3
2022-10-19T08:12:15.059Z,12.4
2022-10-19T08:15:11.224Z,12.4
2022-10-19T08:18:11.211Z,12.5
2022-10-19T08:21:11.219Z,12.5
2022-10-19T08:24:11.231Z,12.5
2022-10-19T08:27:11.289Z,12.5
2022-10-19T08:30:11.253Z,12.6
2022-10-19T08:33:11.298Z,12.7
2022-10-19T08:36:11.276Z,12.6
2022-10-19T08:39:11.281Z,12.7
2022-10-19T08:42:11.288Z,12.9
2022-10-19T08:45:11.296Z,13.1
2022-10-19T08:48:11.306Z,13.3
2022-10-19T08:51:11.339Z,13.4
2022-10-19T08:54:11.329Z,13.4
2022-10-19T08:57:11.347Z,13.5
2022-10-19T09:00:11.351Z,13.5
2022-10-19T09:03:11.365Z,13.5
2022-10-19T09:06:11.369Z,13.5
2022-10-19T09:09:11.403Z,13.6
2022-10-19T09:12:11.391Z,13.7
2022-10-19T09:15:11.396Z,13.9
2022-10-19T09:18:11.408Z,14
2022-10-19T09:21:11.415Z,14.2
2022-10-19T09:24:11.428Z,14.4
2022-10-19T09:27:11.463Z,14.8
2022-10-19T09:30:11.453Z,15
2022-10-19T09:33:14.576Z,15.6
2022-10-19T09:36:18.248Z,16.4
2022-10-19T09:39:11.489Z,17
2022-10-19T09:42:11.495Z,17.3
2022-10-19T09:45:11.543Z,17.4
2022-10-19T09:48:13.049Z,17.1
2022-10-19T09:51:11.528Z,17.3
2022-10-19T09:54:11.537Z,17.9
2022-10-19T09:57:11.544Z,18.7
2022-10-19T10:00:11.556Z,19.3
2022-10-19T10:03:11.678Z,19.9
2022-10-19T10:06:11.632Z,20.1
2022-10-19T10:09:11.684Z,20
2022-10-19T10:12:11.626Z,19.8
2022-10-19T10:15:11.637Z,19.4
2022-10-19T10:18:11.642Z,19.2
2022-10-19T10:21:11.734Z,19
2022-10-19T10:24:11.636Z,18.6
2022-10-19T10:27:11.639Z,18.2
2022-10-19T10:30:11.640Z,18
2022-10-19T10:33:21.183Z,18
2022-10-19T10:36:11.639Z,17.8
2022-10-19T10:39:11.672Z,17.5
2022-10-19T10:42:11.642Z,17.1
2022-10-19T10:45:11.650Z,16.7
2022-10-19T10:48:11.655Z,16.6
2022-10-19T10:51:11.644Z,16.3
2022-10-19T10:54:11.653Z,16
2022-10-19T10:57:11.734Z,15.8
2022-10-19T11:00:11.664Z,15.6
2022-10-19T11:03:11.652Z,15.3
2022-10-19T11:06:11.691Z,15.1
2022-10-19T11:09:11.756Z,15
2022-10-19T11:12:11.668Z,15.2
2022-10-19T11:15:11.694Z,15.2
2022-10-19T11:18:11.672Z,15.3
2022-10-19T11:21:11.668Z,15.7
2022-10-19T11:24:11.682Z,15.9
2022-10-19T11:27:11.674Z,16.4
2022-10-19T11:30:11.678Z,16.6
2022-10-19T11:33:11.696Z,16.8
2022-10-19T11:36:11.683Z,16.9
2022-10-19T11:39:11.681Z,17.1
2022-10-19T11:42:11.688Z,17.2
2022-10-19T11:45:11.687Z,17.2
2022-10-19T11:48:11.690Z,17.2
2022-10-19T11:51:20.734Z,17.2
2022-10-19T11:54:14.680Z,17.3
2022-10-19T11:57:11.989Z,17.2
2022-10-19T12:00:27.165Z,17.2
2022-10-19T12:03:11.713Z,17.2
2022-10-19T12:06:11.706Z,17.1
2022-10-19T12:09:11.894Z,17.1
2022-10-19T12:12:11.722Z,17.1
2022-10-19T12:15:11.720Z,17.2
2022-10-19T12:18:11.736Z,17.2
2022-10-19T12:21:11.729Z,17
2022-10-19T12:24:11.728Z,16.8
2022-10-19T12:27:11.767Z,16.6
2022-10-19T12:30:11.741Z,16.4
2022-10-19T12:33:11.752Z,16.5
2022-10-19T12:36:11.759Z,16.6
2022-10-19T12:39:11.761Z,16.5
2022-10-19T12:42:11.766Z,16.4
2022-10-19T12:45:11.796Z,16.3
2022-10-19T12:48:11.784Z,16.2
2022-10-19T12:51:11.785Z,15.9
2022-10-19T12:54:11.773Z,15.6
2022-10-19T12:57:11.787Z,15.4
2022-10-19T13:00:11.794Z,15.1
2022-10-19T13:03:11.825Z,14.9
2022-10-19T13:06:11.806Z,14.8
2022-10-19T13:09:11.834Z,14.7
2022-10-19T13:12:11.801Z,14.7
2022-10-19T13:15:11.813Z,14.5
2022-10-19T13:18:11.816Z,14.5
2022-10-19T13:21:11.843Z,14.4
2022-10-19T13:24:11.829Z,14.4
2022-10-19T13:27:11.841Z,14.4
2022-10-19T13:30:11.842Z,14.5
2022-10-19T13:33:11.932Z,14.6
2022-10-19T13:36:11.846Z,14.7
2022-10-19T13:39:11.879Z,14.8
2022-10-19T13:42:11.863Z,14.7
2022-10-19T13:45:11.872Z,14.6
2022-10-19T13:48:11.874Z,14.7
2022-10-19T13:51:11.877Z,14.8
2022-10-19T13:54:11.886Z,14.9
2022-10-19T13:57:11.908Z,14.9
2022-10-19T14:00:11.906Z,14.9
2022-10-19T14:03:11.968Z,14.7
2022-10-19T14:06:11.904Z,14.7
2022-10-19T14:09:12.056Z,14.7
2022-10-19T14:12:11.924Z,14.9
2022-10-19T14:15:11.962Z,15
2022-10-19T14:18:15.215Z,15.2
2022-10-19T14:21:11.946Z,15.2
2022-10-19T14:24:11.947Z,15.2
2022-10-19T14:27:11.959Z,15.2
2022-10-19T14:30:11.957Z,15.1
2022-10-19T14:33:11.994Z,14.9
2022-10-19T14:36:11.979Z,14.8
2022-10-19T14:39:12.010Z,14.7
2022-10-19T14:42:11.996Z,14.6
2022-10-19T14:45:12.002Z,14.5
2022-10-19T14:48:12.012Z,14.6
2022-10-19T14:51:12.054Z,14.6
2022-10-19T14:54:12.032Z,14.5
2022-10-19T14:57:12.032Z,14.5
2022-10-19T15:00:12.138Z,14.4
2022-10-19T15:03:12.044Z,14.3
2022-10-19T15:06:12.049Z,14.2
2022-10-19T15:09:15.528Z,14.1
2022-10-19T15:12:12.074Z,14
2022-10-19T15:15:12.067Z,14
2022-10-19T15:18:20.531Z,14
2022-10-19T15:21:12.926Z,13.9
2022-10-19T15:24:12.103Z,13.9
2022-10-19T15:27:12.130Z,13.8
2022-10-19T15:30:12.119Z,13.7
2022-10-19T15:33:12.125Z,13.6
2022-10-19T15:36:12.136Z,13.6
2022-10-19T15:39:24.831Z,13.5
2022-10-19T15:42:12.148Z,13.4
2022-10-19T15:45:12.177Z,13.3
2022-10-19T15:48:12.163Z,13.2
2022-10-19T15:51:12.177Z,13.1
2022-10-19T15:54:12.187Z,13
2022-10-19T15:57:12.189Z,12.9
2022-10-19T16:00:12.197Z,12.8
2022-10-19T16:03:12.229Z,12.6
2022-10-19T16:06:12.208Z,12.5
2022-10-19T16:09:12.278Z,12.4
2022-10-19T16:12:12.227Z,12.2
2022-10-19T16:15:12.238Z,12.1
2022-10-19T16:18:12.246Z,11.9
2022-10-19T16:21:12.272Z,11.8
2022-10-19T16:24:12.253Z,11.7
2022-10-19T16:27:12.258Z,11.5
2022-10-19T16:30:12.267Z,11.3
2022-10-19T16:33:12.273Z,11.2
2022-10-19T16:36:12.279Z,11
2022-10-19T16:39:12.313Z,11
2022-10-19T16:42:12.287Z,10.9
2022-10-19T16:45:12.294Z,10.8
2022-10-19T16:48:12.299Z,10.7
2022-10-19T16:51:12.306Z,10.6
2022-10-19T16:54:12.314Z,10.5
2022-10-19T16:57:12.341Z,10.3
2022-10-19T17:00:12.313Z,10.2
2022-10-19T17:03:12.321Z,10
2022-10-19T17:06:12.329Z,9.9
2022-10-19T17:12:12.331Z,9.5
2022-10-19T17:15:37.453Z,9.4
2022-10-19T17:18:12.389Z,9.2
2022-10-19T17:21:12.333Z,9.2
2022-10-19T17:24:14.671Z,9.1
2022-10-19T17:27:12.344Z,9
2022-10-19T17:30:12.344Z,8.8
2022-10-19T17:33:12.374Z,8.6
2022-10-19T17:36:12.360Z,8.5
2022-10-19T17:39:12.365Z,8.4
2022-10-19T17:42:12.364Z,8.3
2022-10-19T17:45:12.371Z,8.2
2022-10-19T17:48:12.376Z,8
2022-10-19T17:51:12.398Z,7.9
2022-10-19T17:54:12.373Z,7.8
2022-10-19T17:57:12.375Z,7.7
2022-10-19T18:00:12.375Z,7.6
2022-10-19T18:03:12.511Z,7.4
2022-10-19T18:06:12.381Z,7.3
2022-10-19T18:09:12.456Z,7.2
2022-10-19T18:12:12.407Z,7.1
2022-10-19T18:15:12.410Z,7
2022-10-19T18:18:12.463Z,7
2022-10-19T18:21:12.416Z,7
2022-10-19T18:24:14.244Z,6.9
2022-10-19T18:27:12.461Z,6.8
2022-10-19T18:30:12.448Z,6.8
2022-10-19T18:33:12.469Z,6.7
2022-10-19T18:36:12.461Z,6.7
2022-10-19T18:39:12.477Z,6.6
2022-10-19T18:42:12.490Z,6.6
2022-10-19T18:45:12.528Z,6.4
2022-10-19T18:48:12.520Z,6.4
2022-10-19T18:51:12.522Z,6.3
2022-10-19T18:54:12.539Z,6.3
2022-10-19T18:57:12.542Z,6.2
2022-10-19T19:00:12.546Z,6.1
2022-10-19T19:03:12.598Z,6.1
2022-10-19T19:06:12.568Z,6.1
2022-10-19T19:09:12.584Z,6.1
2022-10-19T19:12:12.588Z,6.1
2022-10-19T19:15:12.597Z,6.1
2022-10-19T19:18:12.666Z,5.9
2022-10-19T19:21:12.651Z,5.9
2022-10-19T19:24:12.636Z,5.9
2022-10-19T19:27:12.644Z,5.8
2022-10-19T19:30:12.653Z,5.8
2022-10-19T19:33:12.680Z,5.8
2022-10-19T19:36:12.676Z,5.8
2022-10-19T19:39:12.718Z,5.8
2022-10-19T19:42:12.698Z,5.6
2022-10-19T19:45:12.862Z,5.6
2022-10-19T19:48:12.719Z,5.6
2022-10-19T19:51:12.724Z,5.6
2022-10-19T19:54:12.730Z,5.5
2022-10-19T19:57:12.766Z,5.3
2022-10-19T20:00:12.742Z,5.3
2022-10-19T20:03:12.763Z,5.3
2022-10-19T20:06:12.759Z,5.2
2022-10-19T20:09:12.790Z,5.3
2022-10-19T20:12:12.768Z,5.2
2022-10-19T20:15:12.801Z,5.3
2022-10-19T20:18:12.951Z,5.3
2022-10-19T20:21:12.776Z,5.3
2022-10-19T20:24:12.792Z,5.3
2022-10-19T20:27:12.798Z,5.3
2022-10-19T20:30:12.801Z,5.3
2022-10-19T20:33:12.845Z,5.4
2022-10-19T20:36:12.818Z,5.4
2022-10-19T20:39:12.812Z,5.3
2022-10-19T20:42:12.819Z,5.3
2022-10-19T20:45:12.833Z,5.3
2022-10-19T20:48:12.857Z,5.3
2022-10-19T20:51:12.881Z,5.3
2022-10-19T20:54:12.874Z,5.3
2022-10-19T20:57:12.885Z,5.2
2022-10-19T21:00:12.896Z,5.1
2022-10-19T21:03:12.912Z,5.1
2022-10-19T21:06:12.912Z,5
2022-10-19T21:09:13.049Z,5
2022-10-19T21:12:12.934Z,4.9
2022-10-19T21:15:12.954Z,4.8
2022-10-19T21:18:12.965Z,4.8
2022-10-19T21:21:12.967Z,4.7
2022-10-19T21:24:12.984Z,4.7
2022-10-19T21:27:13.014Z,4.7
2022-10-19T21:30:13.001Z,4.7
2022-10-19T21:33:13.026Z,4.7
2022-10-19T21:36:13.026Z,4.6
2022-10-19T21:39:13.052Z,4.6
2022-10-19T21:42:13.063Z,4.6
2022-10-19T21:48:13.113Z,4.6
2022-10-19T21:51:13.102Z,4.7
2022-10-19T21:54:13.112Z,4.6
2022-10-19T21:57:13.119Z,4.6
2022-10-19T22:00:13.134Z,4.5
2022-10-19T22:06:13.154Z,4.5
2022-10-19T22:09:13.230Z,4.5
2022-10-19T22:15:13.195Z,4.4
2022-10-19T22:18:13.292Z,4.3
2022-10-19T22:21:13.246Z,4.3
2022-10-19T22:24:13.232Z,4.3
2022-10-19T22:27:13.250Z,4.2
2022-10-19T22:30:13.262Z,4.2
2022-10-19T22:33:13.313Z,4.2
2022-10-19T22:36:13.298Z,4.3
2022-10-19T22:39:13.340Z,4.3
2022-10-19T22:42:13.325Z,4.3
2022-10-19T22:45:13.339Z,4.4
2022-10-19T22:48:13.363Z,4.4
2022-10-19T22:51:13.362Z,4.4
2022-10-19T22:54:13.367Z,4.3
2022-10-19T22:57:13.412Z,4.3
2022-10-19T23:00:13.414Z,4.3
2022-10-19T23:03:13.439Z,4.3
2022-10-19T23:06:13.441Z,4.3
2022-10-19T23:09:13.457Z,4.3
2022-10-19T23:12:13.469Z,4.3
2022-10-19T23:15:13.507Z,4.3
2022-10-19T23:18:13.514Z,4.4
2022-10-19T23:21:13.520Z,4.4
2022-10-19T23:24:13.533Z,4.4
2022-10-19T23:27:13.559Z,4.4
2022-10-19T23:30:13.573Z,4.4
2022-10-19T23:33:13.653Z,4.3
2022-10-19T23:36:13.615Z,4.3
2022-10-19T23:39:13.622Z,4.2
2022-10-19T23:42:13.641Z,4.2
2022-10-19T23:45:13.649Z,4.1
2022-10-19T23:48:13.676Z,4.1
2022-10-19T23:51:13.707Z,4.1
2022-10-19T23:54:13.713Z,4
2022-10-19T23:57:13.732Z,3.9
